Time;durP1;ratioP1;P1;durP2;ratioP2;P2;SDS_P1;SDS_P2;PMS_P1;PMS_P2;Temp;Humidity;BMP_temperature;BMP_pressure;BME280_temperature;BME280_humidity;BME280_pressure;Samples;Min_cycle;Max_cycle;Signal;HPM_P1;HPM_P2
2023/12/15 00:00:43;;;;;;;0.30;0.30;;;;;;;5.11;100.00;62524.38;5085965;28;20223;-73
2023/12/15 00:03:10;;;;;;;0.68;0.68;;;;;;;5.13;100.00;62526.44;5074463;28;20197;-75
2023/12/15 00:05:38;;;;;;;0.32;0.32;;;;;;;5.19;100.00;62530.09;5077824;28;20226;-74
2023/12/15 00:08:05;;;;;;;0.60;0.60;;;;;;;5.19;100.00;62532.09;5086227;28;20196;-75
2023/12/15 00:10:32;;;;;;;0.40;0.40;;;;;;;5.19;100.00;62537.66;5087943;28;20224;-74
2023/12/15 00:12:59;;;;;;;0.68;0.68;;;;;;;5.25;100.00;62535.75;5081552;28;20197;-73
2023/12/15 00:15:26;;;;;;;0.70;0.70;;;;;;;5.25;100.00;62538.78;5065962;28;20263;-73
2023/12/15 00:17:53;;;;;;;1.75;0.50;;;;;;;5.28;100.00;62541.88;5073012;28;20199;-74
2023/12/15 00:20:20;;;;;;;0.80;0.57;;;;;;;5.28;100.00;62539.34;5067891;28;20292;-73
2023/12/15 00:22:48;;;;;;;0.43;0.43;;;;;;;5.23;100.00;62536.72;5065058;28;20222;-74
2023/12/15 00:25:15;;;;;;;0.38;0.38;;;;;;;5.28;100.00;62544.41;5064934;28;20225;-73
2023/12/15 00:27:42;;;;;;;0.70;0.70;;;;;;;5.33;100.00;62549.53;5067815;28;20221;-74
2023/12/15 00:30:09;;;;;;;0.85;0.85;;;;;;;5.41;100.00;62552.75;5070397;28;20255;-72
2023/12/15 00:32:36;;;;;;;1.08;1.00;;;;;;;5.29;100.00;62545.44;5085425;28;20220;-75
2023/12/15 00:35:04;;;;;;;1.48;1.38;;;;;;;5.36;100.00;62552.66;5085670;28;20297;-76
2023/12/15 00:37:31;;;;;;;0.70;0.70;;;;;;;5.39;100.00;62550.16;5073123;28;20215;-74
2023/12/15 00:39:59;;;;;;;0.30;0.30;;;;;;;5.36;100.00;62550.13;5064763;28;20240;-75
2023/12/15 00:42:26;;;;;;;0.38;0.38;;;;;;;5.35;100.00;62549.09;5064607;28;20379;-74
2023/12/15 00:44:54;;;;;;;0.60;0.60;;;;;;;5.35;100.00;62546.06;5065586;28;20221;-76
2023/12/15 00:47:21;;;;;;;0.40;0.40;;;;;;;5.39;100.00;62550.69;5071789;28;20205;-73
2023/12/15 00:49:48;;;;;;;0.35;0.35;;;;;;;5.39;100.00;62553.22;5064235;28;20289;-74
2023/12/15 00:52:15;;;;;;;0.50;0.50;;;;;;;5.36;100.00;62547.59;5065741;28;20205;-73
2023/12/15 00:54:42;;;;;;;0.47;0.47;;;;;;;5.30;100.00;62533.31;5064872;28;20232;-74
2023/12/15 00:57:10;;;;;;;0.52;0.52;;;;;;;5.31;100.00;62549.50;5064574;28;20201;-74
2023/12/15 00:59:37;;;;;;;0.73;0.73;;;;;;;5.31;100.00;62547.50;5065426;28;20434;-74
2023/12/15 01:02:05;;;;;;;0.60;0.60;;;;;;;5.35;100.00;62546.56;5064515;28;20223;-74
2023/12/15 01:04:33;;;;;;;1.38;0.90;;;;;;;5.39;100.00;62553.22;5067440;28;20217;-74
2023/12/15 01:07:00;;;;;;;0.95;0.70;;;;;;;5.43;100.00;62556.81;5080363;28;20264;-76
2023/12/15 01:09:27;;;;;;;0.70;0.70;;;;;;;5.37;100.00;62551.16;5082990;28;20220;-74
2023/12/15 01:11:54;;;;;;;0.45;0.45;;;;;;;5.37;100.00;62551.16;5084226;28;20224;-74
2023/12/15 01:14:22;;;;;;;0.73;0.73;;;;;;;5.39;100.00;62555.22;5072173;28;20224;-74
2023/12/15 01:16:50;;;;;;;0.90;0.90;;;;;;;5.32;100.00;62542.94;5063958;28;20225;-76
2023/12/15 01:19:17;;;;;;;1.00;1.00;;;;;;;5.40;100.00;62556.75;5083933;28;20224;-74
2023/12/15 01:21:44;;;;;;;0.43;0.43;;;;;;;5.37;100.00;62550.63;5086974;28;20196;-75
2023/12/15 01:24:12;;;;;;;0.70;0.70;;;;;;;5.42;100.00;62550.72;5074235;28;20399;-76
2023/12/15 01:26:39;;;;;;;2.45;0.85;;;;;;;5.35;100.00;62549.09;5077515;28;20221;-74
2023/12/15 01:29:06;;;;;;;0.75;0.75;;;;;;;5.36;100.00;62549.59;5065464;28;20327;-75
2023/12/15 01:31:34;;;;;;;0.63;0.63;;;;;;;5.26;100.00;62539.81;5066424;28;20504;-74
2023/12/15 01:34:01;;;;;;;0.73;0.73;;;;;;;5.33;100.00;62547.03;5067437;28;20433;-74
2023/12/15 01:36:28;;;;;;;0.68;0.68;;;;;;;5.28;100.00;62541.38;5085248;28;20287;-74
2023/12/15 01:38:55;;;;;;;0.47;0.47;;;;;;;5.28;100.00;62541.88;5084684;28;20217;-74
2023/12/15 01:41:22;;;;;;;0.40;0.40;;;;;;;5.22;100.00;62538.22;5073200;28;20208;-74
2023/12/15 01:43:49;;;;;;;2.28;0.50;;;;;;;5.17;100.00;62530.03;5075610;28;20401;-75
2023/12/15 01:46:16;;;;;;;0.30;0.30;;;;;;;5.18;100.00;62526.00;5065129;28;20338;-75
2023/12/15 01:48:44;;;;;;;0.30;0.30;;;;;;;5.18;100.00;62529.06;5080207;28;20925;-75
2023/12/15 01:51:11;;;;;;;0.40;0.40;;;;;;;5.16;100.00;62529.00;5064807;28;20498;-75
2023/12/15 01:53:38;;;;;;;0.40;0.40;;;;;;;5.14;100.00;62529.47;5068448;28;20243;-75
2023/12/15 01:56:06;;;;;;;0.52;0.52;;;;;;;5.15;100.00;62525.97;5086113;28;20232;-74
2023/12/15 01:58:33;;;;;;;0.60;0.60;;;;;;;5.20;100.00;62536.16;5073130;28;20220;-74
2023/12/15 02:01:00;;;;;;;0.60;0.60;;;;;;;5.20;100.00;62535.63;5063970;28;20200;-74
2023/12/15 02:03:27;;;;;;;1.17;0.70;;;;;;;5.21;100.00;62539.72;5076271;28;20228;-74
2023/12/15 02:05:55;;;;;;;0.50;0.50;;;;;;;5.25;100.00;62538.25;5084392;28;20204;-74
2023/12/15 02:08:22;;;;;;;0.50;0.50;;;;;;;5.20;100.00;62540.69;5067726;28;20205;-74
2023/12/15 02:10:49;;;;;;;0.60;0.60;;;;;;;5.16;100.00;62529.50;5067666;28;20350;-75
2023/12/15 02:13:19;;;;;;;0.90;0.90;;;;;;;5.15;100.00;62528.50;5067374;28;20219;-75
2023/12/15 02:15:46;;;;;;;0.80;0.80;;;;;;;5.15;100.00;62527.97;5070517;28;20254;-73
2023/12/15 02:18:13;;;;;;;1.10;1.00;;;;;;;5.14;100.00;62530.00;5075991;28;20192;-75
2023/12/15 02:20:39;;;;;;;0.77;0.77;;;;;;;5.09;100.00;62521.81;5085249;28;20236;-74
2023/12/15 02:23:08;;;;;;;1.05;1.05;;;;;;;5.09;100.00;62524.81;5084860;28;20208;-73
2023/12/15 02:25:35;;;;;;;1.05;1.05;;;;;;;5.12;100.00;62524.88;5067754;28;20298;-74
2023/12/15 02:28:02;;;;;;;1.98;1.73;;;;;;;5.17;100.00;62533.06;5067130;28;20470;-73
2023/12/15 02:30:29;;;;;;;1.95;1.85;;;;;;;5.15;100.00;62530.50;5077795;28;20215;-73
2023/12/15 02:32:55;;;;;;;2.05;1.95;;;;;;;5.16;100.00;62531.53;5070972;28;20197;-74
2023/12/15 02:35:22;;;;;;;2.10;2.00;;;;;;;5.15;100.00;62531.00;5067574;28;20237;-73
2023/12/15 02:37:49;;;;;;;2.50;2.33;;;;;;;5.20;100.00;62533.63;5067410;28;20194;-73
2023/12/15 02:40:18;;;;;;;2.90;2.72;;;;;;;5.19;100.00;62530.09;5068929;28;20229;-74
2023/12/15 02:42:45;;;;;;;3.50;3.25;;;;;;;5.19;100.00;62529.56;5075809;28;20468;-73
2023/12/15 02:45:11;;;;;;;3.45;3.08;;;;;;;5.12;100.00;62522.38;5085681;28;20517;-74
2023/12/15 02:47:38;;;;;;;3.38;3.10;;;;;;;5.15;100.00;62527.97;5084287;28;20221;-74
2023/12/15 02:50:06;;;;;;;3.03;2.83;;;;;;;5.18;100.00;62531.56;5068449;28;20300;-74
2023/12/15 02:52:33;;;;;;;3.83;3.42;;;;;;;5.16;100.00;62527.00;5067046;28;20268;-74
2023/12/15 02:55:00;;;;;;;3.33;3.13;;;;;;;5.10;100.00;62515.78;5067090;28;20545;-76
2023/12/15 02:57:28;;;;;;;3.90;3.60;;;;;;;5.14;100.00;62529.47;5075303;28;20575;-74
2023/12/15 02:59:55;;;;;;;4.10;3.80;;;;;;;5.18;100.00;62531.56;5084022;28;20260;-75
2023/12/15 03:02:22;;;;;;;4.45;4.05;;;;;;;5.14;100.00;62527.47;5066599;28;20201;-74
2023/12/15 03:04:50;;;;;;;3.53;3.22;;;;;;;5.14;100.00;62526.94;5082525;28;20287;-74
2023/12/15 03:07:17;;;;;;;3.50;3.20;;;;;;;5.10;100.00;62525.34;5072052;28;20207;-73
2023/12/15 03:09:44;;;;;;;2.50;2.30;;;;;;;5.10;100.00;62522.81;5068110;28;20217;-75
2023/12/15 03:12:11;;;;;;;2.63;2.53;;;;;;;5.07;100.00;62519.75;5086942;28;20197;-74
2023/12/15 03:14:39;;;;;;;2.67;2.53;;;;;;;5.04;100.00;62519.19;5084216;28;20219;-75
2023/12/15 03:17:06;;;;;;;2.42;2.33;;;;;;;5.05;100.00;62515.69;5087337;28;20450;-76
2023/12/15 03:19:33;;;;;;;3.00;2.80;;;;;;;5.06;100.00;62519.22;5073317;28;20233;-76
2023/12/15 03:22:00;;;;;;;4.25;2.65;;;;;;;5.03;100.00;62513.09;5065856;28;20197;-75
2023/12/15 03:24:28;;;;;;;3.35;3.08;;;;;;;5.03;100.00;62518.13;5073868;28;20220;-73
2023/12/15 03:26:54;;;;;;;3.72;3.42;;;;;;;5.03;100.00;62513.59;5087496;28;20392;-74
2023/12/15 03:29:21;;;;;;;4.85;4.45;;;;;;;5.02;100.00;62517.63;5069748;28;20297;-74
2023/12/15 03:31:50;;;;;;;5.47;4.38;;;;;;;5.04;100.00;62519.19;5075318;28;20201;-75
2023/12/15 03:34:17;;;;;;;5.50;5.00;;;;;;;5.00;100.00;62513.06;5068799;28;20213;-74
2023/12/15 03:36:43;;;;;;;6.97;5.07;;;;;;;4.97;100.00;62504.91;5066014;28;20233;-75
2023/12/15 03:39:10;;;;;;;5.55;4.90;;;;;;;4.96;100.00;62508.91;5065855;28;20217;-73
2023/12/15 03:41:37;;;;;;;8.32;6.03;;;;;;;4.94;100.00;62509.38;5070981;28;20211;-73
2023/12/15 03:44:04;;;;;;;12.32;10.05;;;;;;;4.90;100.00;62504.75;5067696;28;20217;-73
2023/12/15 03:46:31;;;;;;;7.20;6.50;;;;;;;4.88;100.00;62497.66;5066689;28;20225;-75
2023/12/15 03:49:00;;;;;;;7.25;6.55;;;;;;;4.93;100.00;62508.38;5066350;28;20224;-73
2023/12/15 03:51:27;;;;;;;7.13;6.35;;;;;;;4.94;100.00;62506.88;5072971;28;20207;-74
2023/12/15 03:53:54;;;;;;;5.78;5.05;;;;;;;4.96;100.00;62508.41;5086970;28;20288;-74
2023/12/15 03:56:24;;;;;;;5.80;5.20;;;;;;;4.93;100.00;62508.38;5080554;28;20235;-74
2023/12/15 03:58:51;;;;;;;5.88;5.38;;;;;;;4.89;100.00;62498.66;5070640;28;20225;-74
2023/12/15 04:01:18;;;;;;;5.57;4.95;;;;;;;4.90;100.00;62507.78;5078988;28;20373;-74
2023/12/15 04:03:45;;;;;;;5.68;5.15;;;;;;;4.95;100.00;62510.44;5085646;28;20220;-73
2023/12/15 04:06:12;;;;;;;5.97;5.35;;;;;;;4.94;100.00;62508.88;5075224;28;20384;-73
2023/12/15 04:08:41;;;;;;;6.20;5.57;;;;;;;4.95;100.00;62509.91;5077014;28;20251;-74
2023/12/15 04:11:07;;;;;;;6.72;5.80;;;;;;;4.94;100.00;62509.38;5065252;28;20208;-73
2023/12/15 04:13:35;;;;;;;7.55;6.70;;;;;;;5.00;100.00;62510.00;5065947;28;20193;-72
2023/12/15 04:16:01;;;;;;;7.20;5.63;;;;;;;5.08;100.00;62520.75;5066013;28;20283;-73
2023/12/15 04:18:28;;;;;;;6.70;6.10;;;;;;;4.87;100.00;62494.09;5069089;28;20231;-73
2023/12/15 04:20:55;;;;;;;7.40;5.95;;;;;;;4.97;100.00;62511.97;5081483;28;20489;-73
2023/12/15 04:23:24;;;;;;;9.25;6.40;;;;;;;4.89;100.00;62501.72;5085491;28;20200;-73
2023/12/15 04:25:51;;;;;;;7.13;6.43;;;;;;;4.86;100.00;62498.13;5086623;28;20207;-74
2023/12/15 04:28:18;;;;;;;6.82;6.10;;;;;;;4.89;100.00;62496.16;5083701;28;20276;-75
2023/12/15 04:30:45;;;;;;;8.18;7.18;;;;;;;5.00;100.00;62515.06;5086416;28;20408;-74
2023/12/15 04:33:12;;;;;;;8.15;6.50;;;;;;;4.98;100.00;62503.41;5080463;28;20402;-74
2023/12/15 04:35:39;;;;;;;7.68;6.53;;;;;;;4.96;100.00;62503.34;5066666;28;20221;-75
2023/12/15 04:38:06;;;;;;;7.95;6.95;;;;;;;4.95;100.00;62510.44;5065536;28;20403;-74
2023/12/15 04:40:34;;;;;;;7.53;6.63;;;;;;;4.98;100.00;62513.50;5065413;28;20224;-74
2023/12/15 04:43:01;;;;;;;6.63;5.75;;;;;;;4.98;100.00;62507.94;5069332;28;20607;-73
2023/12/15 04:45:28;;;;;;;9.00;7.38;;;;;;;4.97;100.00;62509.44;5083954;28;20460;-74
2023/12/15 04:47:56;;;;;;;8.15;6.95;;;;;;;4.97;100.00;62509.44;5084951;28;20194;-73
2023/12/15 04:50:23;;;;;;;7.43;6.50;;;;;;;4.96;100.00;62511.44;5085947;28;20275;-73
2023/12/15 04:52:50;;;;;;;8.30;6.82;;;;;;;4.99;100.00;62508.97;5070610;28;20321;-73
2023/12/15 04:55:17;;;;;;;8.75;6.43;;;;;;;4.99;100.00;62508.97;5085199;28;20220;-73
2023/12/15 04:57:45;;;;;;;8.13;6.43;;;;;;;5.05;100.00;62518.19;5071538;28;20432;-72
2023/12/15 05:00:13;;;;;;;8.35;7.30;;;;;;;5.07;100.00;62512.16;5078698;28;20254;-73
2023/12/15 05:02:40;;;;;;;8.30;7.20;;;;;;;5.05;100.00;62517.69;5064654;28;20197;-73
2023/12/15 05:05:08;;;;;;;8.27;6.72;;;;;;;5.08;100.00;62521.28;5076054;28;20231;-74
2023/12/15 05:07:35;;;;;;;7.55;6.65;;;;;;;5.04;100.00;62517.16;5068248;28;20498;-73
2023/12/15 05:10:02;;;;;;;6.57;5.93;;;;;;;5.05;100.00;62518.19;5066382;28;20228;-71
2023/12/15 05:12:29;;;;;;;6.38;5.78;;;;;;;5.06;100.00;62514.16;5074387;28;20201;-72
2023/12/15 05:14:57;;;;;;;5.60;5.10;;;;;;;5.04;100.00;62521.69;5072983;28;20217;-72
2023/12/15 05:17:24;;;;;;;5.75;4.63;;;;;;;4.93;100.00;62500.28;5067160;28;20549;-72
2023/12/15 05:19:51;;;;;;;6.72;6.07;;;;;;;4.88;100.00;62500.69;5073106;28;20217;-73
2023/12/15 05:22:17;;;;;;;5.20;4.70;;;;;;;4.85;100.00;62500.13;5067792;28;20201;-73
2023/12/15 05:24:44;;;;;;;6.65;5.82;;;;;;;4.85;100.00;62500.13;5082714;28;20262;-73
2023/12/15 05:27:11;;;;;;;5.50;5.00;;;;;;;4.86;100.00;62501.16;5067563;28;20212;-73
2023/12/15 05:29:45;;;;;;;5.10;4.60;;;;;;;4.79;100.00;62490.91;5065200;28;20229;-72
2023/12/15 05:32:13;;;;;;;7.65;5.38;;;;;;;4.77;100.00;62489.34;5075402;28;20197;-73
2023/12/15 05:34:40;;;;;;;5.50;5.00;;;;;;;4.80;100.00;62491.94;5072841;28;20213;-73
2023/12/15 05:37:07;;;;;;;5.80;5.05;;;;;;;4.78;100.00;62490.38;5065948;28;20233;-73
2023/12/15 05:39:34;;;;;;;5.70;5.20;;;;;;;4.79;100.00;62488.91;5064507;28;20216;-73
2023/12/15 05:42:01;;;;;;;5.95;5.30;;;;;;;4.83;100.00;62495.03;5082687;28;20200;-73
2023/12/15 05:44:28;;;;;;;6.43;5.63;;;;;;;4.82;100.00;62491.47;5067015;28;20221;-72
2023/12/15 05:46:55;;;;;;;5.53;5.03;;;;;;;4.79;100.00;62491.44;5064486;28;20228;-71
2023/12/15 05:49:24;;;;;;;6.07;5.50;;;;;;;4.80;100.00;62491.94;5071612;28;20233;-72
2023/12/15 05:51:50;;;;;;;5.65;4.68;;;;;;;4.81;100.00;62490.97;5063980;28;20522;-75
2023/12/15 05:54:18;;;;;;;4.90;4.47;;;;;;;4.76;100.00;62493.38;5064085;28;20619;-73
2023/12/15 05:56:44;;;;;;;6.38;5.60;;;;;;;4.85;100.00;62499.63;5063415;28;20224;-73
2023/12/15 05:59:11;;;;;;;9.05;5.82;;;;;;;4.88;100.00;62497.66;5072016;28;20262;-73
2023/12/15 06:01:38;;;;;;;5.90;5.35;;;;;;;4.87;100.00;62499.16;5080404;28;20206;-73
2023/12/15 06:04:05;;;;;;;8.27;5.45;;;;;;;4.80;100.00;62494.47;5064655;28;20249;-75
2023/12/15 06:06:34;;;;;;;6.70;5.32;;;;;;;4.84;100.00;62494.03;5064981;28;20276;-73
2023/12/15 06:09:01;;;;;;;8.65;6.05;;;;;;;4.83;100.00;62492.50;5078397;28;20402;-74
2023/12/15 06:11:27;;;;;;;6.07;5.47;;;;;;;4.80;100.00;62489.91;5084150;28;20200;-74
2023/12/15 06:13:54;;;;;;;6.50;5.78;;;;;;;4.81;100.00;62490.44;5083720;28;20578;-74
2023/12/15 06:16:21;;;;;;;6.30;5.57;;;;;;;4.79;100.00;62488.91;5081565;28;20609;-73
2023/12/15 06:18:48;;;;;;;6.35;5.75;;;;;;;4.78;100.00;62487.84;5085753;28;20225;-74
2023/12/15 06:21:22;;;;;;;7.22;5.47;;;;;;;4.76;100.00;62487.81;5070618;28;20193;-73
2023/12/15 06:23:51;;;;;;;7.97;6.57;;;;;;;4.78;100.00;62487.84;5081474;28;20213;-74
2023/12/15 06:26:19;;;;;;;6.18;5.68;;;;;;;4.81;100.00;62492.97;5084262;28;20193;-74
2023/12/15 06:28:46;;;;;;;7.53;6.75;;;;;;;4.85;100.00;62495.06;5082762;28;20254;-75
2023/12/15 06:31:13;;;;;;;8.25;6.82;;;;;;;4.77;100.00;62491.38;5063866;28;20205;-73
2023/12/15 06:33:40;;;;;;;9.02;7.13;;;;;;;4.79;100.00;62490.91;5063925;28;20217;-74
2023/12/15 06:36:08;;;;;;;6.55;5.95;;;;;;;4.69;100.00;62484.16;5064521;28;20426;-75
2023/12/15 06:38:36;;;;;;;6.78;5.80;;;;;;;4.74;100.00;62489.31;5064532;28;20225;-74
2023/12/15 06:41:05;;;;;;;9.38;6.65;;;;;;;4.72;100.00;62484.22;5074899;28;20264;-73
2023/12/15 06:43:31;;;;;;;10.40;6.63;;;;;;;4.73;100.00;62485.25;5083454;28;20511;-73
2023/12/15 06:45:58;;;;;;;9.15;7.20;;;;;;;4.68;100.00;62482.63;5078119;28;20205;-74
2023/12/15 06:48:25;;;;;;;11.45;6.53;;;;;;;4.72;100.00;62486.75;5067015;28;20243;-74
2023/12/15 06:50:52;;;;;;;6.57;5.88;;;;;;;4.73;100.00;62488.28;5078756;28;20376;-75
2023/12/15 06:53:19;;;;;;;8.43;5.60;;;;;;;4.67;100.00;62481.59;5080521;28;20231;-73
2023/12/15 06:55:46;;;;;;;6.15;5.57;;;;;;;4.60;100.00;62472.38;5079900;28;20193;-75
2023/12/15 06:58:14;;;;;;;7.07;5.85;;;;;;;4.65;100.00;62477.00;5077768;28;20285;-74
2023/12/15 07:00:41;;;;;;;7.43;5.95;;;;;;;4.59;100.00;62471.34;5086486;28;20213;-73
2023/12/15 07:03:08;;;;;;;7.07;5.55;;;;;;;4.54;100.00;62463.16;5086551;28;20201;-75
2023/12/15 07:05:36;;;;;;;6.32;5.72;;;;;;;4.53;100.00;62467.69;5087208;28;20212;-75
2023/12/15 07:08:03;;;;;;;8.27;6.32;;;;;;;4.57;100.00;62469.28;5078407;28;20196;-74
2023/12/15 07:10:30;;;;;;;5.57;5.05;;;;;;;4.55;100.00;62467.25;5086781;28;20250;-75
2023/12/15 07:12:56;;;;;;;6.20;5.60;;;;;;;4.54;100.00;62463.16;5087698;28;20193;-74
2023/12/15 07:15:27;;;;;;;5.78;5.15;;;;;;;4.50;100.00;62461.56;5082899;28;20267;-74
2023/12/15 07:17:54;;;;;;;4.35;3.80;;;;;;;4.57;100.00;62468.78;5082463;28;20216;-74
2023/12/15 07:20:24;;;;;;;4.53;4.07;;;;;;;4.53;100.00;62462.66;5088768;28;20249;-75
2023/12/15 07:22:51;;;;;;;7.30;6.60;;;;;;;4.44;100.00;62457.91;5080504;28;20201;-75
2023/12/15 07:25:18;;;;;;;6.10;5.43;;;;;;;4.50;100.00;62464.59;5082840;28;20475;-74
2023/12/15 07:27:45;;;;;;;5.30;4.80;;;;;;;4.53;100.00;62467.19;5087860;28;20204;-75
2023/12/15 07:30:13;;;;;;;4.78;4.35;;;;;;;4.50;100.00;62461.56;5082854;28;20269;-76
2023/12/15 07:32:41;;;;;;;4.43;4.07;;;;;;;4.43;100.00;62454.38;5085032;28;20224;-75
2023/12/15 07:35:09;;;;;;;4.90;4.50;;;;;;;4.46;100.00;62457.97;5086997;28;20217;-76
2023/12/15 07:37:36;;;;;;;4.22;3.92;;;;;;;4.24;100.00;62435.34;5086903;28;20389;-75
2023/12/15 07:40:05;;;;;;;5.22;4.75;;;;;;;4.47;100.00;62458.47;5080884;28;20229;-76
2023/12/15 07:42:32;;;;;;;5.30;4.85;;;;;;;4.53;100.00;62467.19;5085798;28;20192;-76
2023/12/15 07:44:59;;;;;;;6.35;5.75;;;;;;;4.56;100.00;62470.78;5082908;28;20399;-75
2023/12/15 07:47:26;;;;;;;4.60;4.07;;;;;;;4.50;100.00;62464.09;5081330;28;20510;-73
2023/12/15 07:49:55;;;;;;;4.70;4.22;;;;;;;4.55;100.00;62461.69;5085963;28;20225;-74
2023/12/15 07:52:22;;;;;;;5.05;4.55;;;;;;;4.54;100.00;62470.72;5084442;28;20196;-75
2023/12/15 07:54:49;;;;;;;4.93;4.50;;;;;;;4.58;100.00;62472.31;5081637;28;20226;-74
2023/12/15 07:57:16;;;;;;;5.43;4.88;;;;;;;4.64;100.00;62478.50;5079595;28;20224;-75
2023/12/15 07:59:43;;;;;;;4.65;4.25;;;;;;;4.70;100.00;62479.63;5078566;28;20216;-73
2023/12/15 08:02:10;;;;;;;4.90;4.50;;;;;;;4.67;100.00;62479.06;5073759;28;20217;-73
2023/12/15 08:04:37;;;;;;;4.28;3.92;;;;;;;4.63;100.00;62472.44;5069229;28;20297;-73
2023/12/15 08:07:06;;;;;;;3.85;3.50;;;;;;;4.71;100.00;62483.69;5083284;28;20272;-72
2023/12/15 08:09:33;;;;;;;3.83;3.63;;;;;;;4.77;100.00;62489.34;5065799;28;20248;-74
2023/12/15 08:12:00;;;;;;;3.97;3.78;;;;;;;4.79;100.00;62491.44;5081406;28;20388;-73
2023/12/15 08:14:27;;;;;;;4.00;3.70;;;;;;;4.72;100.00;62487.25;5066651;28;20231;-74
2023/12/15 08:16:54;;;;;;;3.92;3.63;;;;;;;4.79;100.00;62491.44;5066538;28;20228;-74
2023/12/15 08:19:21;;;;;;;3.67;3.38;;;;;;;4.81;100.00;62490.97;5075048;28;20312;-73
2023/12/15 08:21:48;;;;;;;4.20;3.70;;;;;;;4.86;100.00;62495.59;5065542;28;20193;-75
2023/12/15 08:24:17;;;;;;;4.05;3.75;;;;;;;4.83;100.00;62493.03;5066722;28;20224;-77
2023/12/15 08:26:44;;;;;;;4.03;3.72;;;;;;;4.91;100.00;62500.72;5067507;28;20257;-75
2023/12/15 08:29:12;;;;;;;3.58;3.28;;;;;;;4.89;100.00;62501.72;5069813;28;20225;-80
2023/12/15 08:31:39;;;;;;;3.97;3.45;;;;;;;4.97;100.00;62509.44;5070361;28;20220;-75
2023/12/15 08:34:05;;;;;;;6.13;3.83;;;;;;;5.01;100.00;62514.06;5066971;28;20224;-75
2023/12/15 08:36:32;;;;;;;4.30;3.88;;;;;;;5.08;100.00;62520.75;5069533;28;20333;-76
2023/12/15 08:38:59;;;;;;;3.38;3.08;;;;;;;5.13;100.00;62523.91;5066658;28;20237;-76
2023/12/15 08:41:27;;;;;;;3.30;3.10;;;;;;;5.19;100.00;62539.66;5067446;28;20209;-75
2023/12/15 08:43:54;;;;;;;2.72;2.53;;;;;;;5.18;100.00;62528.53;5065994;28;20236;-75
2023/12/15 08:46:22;;;;;;;3.22;2.92;;;;;;;5.24;100.00;62537.75;5065583;28;20204;-76
2023/12/15 08:48:49;;;;;;;7.25;3.33;;;;;;;5.27;100.00;62537.81;5065449;28;20251;-75
2023/12/15 08:51:16;;;;;;;3.33;3.13;;;;;;;5.28;100.00;62538.84;5065010;28;20209;-75
2023/12/15 08:53:43;;;;;;;4.32;3.08;;;;;;;5.29;100.00;62542.91;5065467;28;20288;-74
2023/12/15 08:56:10;;;;;;;4.57;4.10;;;;;;;5.33;100.00;62547.03;5065900;28;20204;-75
2023/12/15 08:58:38;;;;;;;8.75;4.18;;;;;;;5.38;100.00;62554.72;5064720;28;20241;-76
2023/12/15 09:01:06;;;;;;;4.53;4.13;;;;;;;5.34;100.00;62543.00;5064611;28;20197;-76
2023/12/15 09:03:34;;;;;;;4.95;4.55;;;;;;;5.37;100.00;62548.63;5065512;28;20631;-74
2023/12/15 09:06:01;;;;;;;5.70;4.25;;;;;;;5.41;100.00;62552.22;5073249;28;20201;-74
2023/12/15 09:08:28;;;;;;;5.85;5.28;;;;;;;5.07;100.00;62515.22;5085377;28;20197;-75
2023/12/15 09:10:55;;;;;;;6.22;5.53;;;;;;;5.42;100.00;62555.78;5085768;28;20322;-74
2023/12/15 09:13:22;;;;;;;17.60;9.70;;;;;;;5.46;100.00;62562.44;5082474;28;20200;-73
2023/12/15 09:15:50;;;;;;;6.75;6.07;;;;;;;5.50;100.00;62567.06;5065090;28;20205;-74
2023/12/15 09:18:17;;;;;;;10.35;6.50;;;;;;;5.47;100.00;62555.91;5076938;28;20325;-73
2023/12/15 09:20:44;;;;;;;8.40;7.15;;;;;;;5.51;100.00;62567.56;5084768;28;20197;-74
2023/12/15 09:23:11;;;;;;;6.32;5.72;;;;;;;5.58;100.00;62572.25;5081612;28;20197;-72
2023/12/15 09:25:38;;;;;;;8.95;5.85;;;;;;;5.37;100.00;62548.09;5066257;28;20226;-73
2023/12/15 09:28:05;;;;;;;6.38;5.78;;;;;;;5.45;100.00;62559.38;5066115;28;20193;-72
2023/12/15 09:30:32;;;;;;;5.60;5.10;;;;;;;5.45;100.00;62559.38;5064355;28;20255;-73
2023/12/15 09:33:00;;;;;;;7.15;5.80;;;;;;;5.46;100.00;62560.41;5064762;28;20205;-73
2023/12/15 09:35:27;;;;;;;6.15;5.53;;;;;;;5.47;100.00;62561.44;5064431;28;20232;-72
2023/12/15 09:37:54;;;;;;;6.20;5.65;;;;;;;5.50;100.00;62567.06;5066681;28;20263;-73
2023/12/15 09:40:23;;;;;;;8.55;6.53;;;;;;;5.59;100.00;62571.28;5064607;28;20237;-72
2023/12/15 09:42:50;;;;;;;7.93;7.13;;;;;;;5.67;100.00;62573.97;5065297;28;20205;-73
2023/12/15 09:45:17;;;;;;;5.05;4.63;;;;;;;5.61;100.00;62570.31;5066273;28;20221;-75
2023/12/15 09:47:46;;;;;;;5.45;4.95;;;;;;;5.52;100.00;62566.09;5064017;28;20233;-75
2023/12/15 09:50:16;;;;;;;5.30;4.63;;;;;;;5.48;100.00;62559.44;5065802;28;20225;-72
2023/12/15 09:52:43;;;;;;;5.05;4.65;;;;;;;5.43;100.00;62556.81;5067809;28;20193;-74
2023/12/15 09:55:10;;;;;;;7.75;4.88;;;;;;;5.45;100.00;62556.84;5065928;28;20216;-74
2023/12/15 09:57:38;;;;;;;7.47;5.50;;;;;;;5.51;100.00;62568.09;5064571;28;20201;-75
2023/12/15 10:00:07;;;;;;;5.10;4.70;;;;;;;5.53;100.00;62564.59;5065110;28;20222;-73
2023/12/15 10:02:35;;;;;;;5.53;5.03;;;;;;;5.44;100.00;62560.38;5065572;28;20203;-73
2023/12/15 10:05:02;;;;;;;7.07;6.13;;;;;;;5.45;100.00;62558.88;5063881;28;20223;-74
2023/12/15 10:07:30;;;;;;;12.88;7.85;;;;;;;5.51;100.00;62570.63;5083778;28;20486;-73
2023/12/15 10:09:57;;;;;;;16.00;8.48;;;;;;;5.63;100.00;62574.88;5083668;28;20544;-73
2023/12/15 10:12:25;;;;;;;21.45;9.23;;;;;;;5.72;100.00;62589.75;5085884;28;20204;-72
2023/12/15 10:14:52;;;;;;;13.13;8.43;;;;;;;5.80;100.00;62597.97;5084019;28;20224;-73
2023/12/15 10:17:19;;;;;;;11.10;8.13;;;;;;;5.82;100.00;62594.47;5083802;28;20211;-73
2023/12/15 10:19:46;;;;;;;5.95;5.15;;;;;;;5.80;100.00;62592.91;5082954;28;20230;-73
2023/12/15 10:22:13;;;;;;;10.00;5.53;;;;;;;5.80;100.00;62595.44;5084137;28;20257;-72
2023/12/15 10:24:41;;;;;;;9.15;4.78;;;;;;;5.74;100.00;62589.28;5082730;28;20227;-72
2023/12/15 10:27:08;;;;;;;6.32;5.32;;;;;;;5.79;100.00;62594.44;5082707;28;20242;-73
2023/12/15 10:29:39;;;;;;;5.82;5.22;;;;;;;5.75;100.00;62587.25;5083121;28;20605;-72
2023/12/15 10:32:06;;;;;;;7.55;6.25;;;;;;;5.76;100.00;62591.31;5079237;28;20251;-73
2023/12/15 10:34:34;;;;;;;9.02;6.82;;;;;;;5.79;100.00;62594.44;5086617;28;20227;-72
2023/12/15 10:37:01;;;;;;;4.82;4.43;;;;;;;5.74;100.00;62586.75;5083132;28;20218;-73
2023/12/15 10:39:28;;;;;;;5.70;4.10;;;;;;;5.65;100.00;62577.47;5083745;28;20243;-74
2023/12/15 10:41:57;;;;;;;7.15;4.45;;;;;;;5.62;100.00;62574.38;5081522;28;20192;-74
2023/12/15 10:44:25;;;;;;;5.03;4.53;;;;;;;5.62;100.00;62576.91;5086692;28;20441;-74
2023/12/15 10:46:53;;;;;;;4.90;4.50;;;;;;;5.59;100.00;62568.25;5083011;28;20231;-73
2023/12/15 10:49:20;;;;;;;5.15;4.75;;;;;;;5.53;100.00;62565.09;5088840;28;20212;-75
2023/12/15 10:51:47;;;;;;;4.85;4.40;;;;;;;5.51;100.00;62565.56;5085416;28;20434;-73
2023/12/15 10:54:14;;;;;;;5.75;4.05;;;;;;;5.42;100.00;62556.28;5081792;28;20232;-74
2023/12/15 10:56:40;;;;;;;4.50;3.83;;;;;;;5.37;100.00;62548.63;5087294;28;20258;-75
2023/12/15 10:59:09;;;;;;;4.70;4.30;;;;;;;5.31;100.00;62544.47;5086955;28;20299;-74
2023/12/15 11:01:36;;;;;;;5.05;4.25;;;;;;;5.25;100.00;62531.22;5086149;28;20193;-75
2023/12/15 11:04:04;;;;;;;4.55;4.15;;;;;;;5.20;100.00;62533.63;5081686;28;20283;-73
2023/12/15 11:06:32;;;;;;;6.82;4.18;;;;;;;5.07;100.00;62519.75;5088681;28;20417;-74
2023/12/15 11:09:00;;;;;;;4.43;4.03;;;;;;;5.09;100.00;62524.81;5085500;28;20230;-74
2023/12/15 11:11:29;;;;;;;5.97;4.70;;;;;;;5.02;100.00;62512.06;5083150;28;20200;-75
2023/12/15 11:14:01;;;;;;;5.70;5.13;;;;;;;5.01;100.00;62516.59;5086987;28;20231;-73
2023/12/15 11:16:30;;;;;;;9.55;5.50;;;;;;;5.05;100.00;62520.72;5088995;28;20215;-74
2023/12/15 11:18:57;;;;;;;6.70;5.70;;;;;;;5.10;100.00;62523.34;5080401;28;20300;-75
2023/12/15 11:21:24;;;;;;;9.15;5.82;;;;;;;5.11;100.00;62524.38;5067016;28;20198;-76
2023/12/15 11:23:53;;;;;;;5.95;5.45;;;;;;;5.10;100.00;62523.34;5068965;28;20221;-74
2023/12/15 11:26:26;;;;;;;5.03;4.63;;;;;;;5.05;100.00;62520.19;5067738;28;20283;-74
2023/12/15 11:28:54;;;;;;;5.22;4.72;;;;;;;5.02;100.00;62517.13;5066992;28;20288;-74
2023/12/15 11:31:22;;;;;;;5.30;4.60;;;;;;;4.96;100.00;62506.41;5067347;28;20239;-73
2023/12/15 11:33:54;;;;;;;5.75;5.13;;;;;;;4.94;100.00;62504.34;5077943;28;20239;-75